EPBY

Bydgoszcz Ignacy Jan Paderewski Airport

Bydgoszcz, Poland
METAR EPBY 181330Z 29012KT 9999 FEW029 01/M05 Q1013
Observed Flight Rules
Jan-18 @ 13:30 UTC (18 minutes ago) Visual Flight Rules
Wind Visibility Clouds
290° at 12 knots 10,000+ meters
  • Few at 2,900' AGL
Temperatures Readings
Current 1°C / 34°F
Dewpoint -5°C / 23°F
Humidity 65%
Altimeter 29.91" Hg
Pressure 1012.92 hPa
Elevation 71
METAR EPBY 181330Z 29012KT 9999 FEW029 01/M05 Q1013
Observed Flight Rules
Jan-18 @ 13:30 UTC
(18 minutes ago)
VFR
Wind Visibility
290° at 12 knots 10,000+ meters
Clouds
  • Few at 2,900' AGL
Temperature Dewpoint
1°C / 34°F -5°C / 23°F
Humidity Altimeter Pressure
65% 29.91" Hg 1012.92 hPa